首页
METAR-TAF:

METAR-TAF

机场 :

香港國際機場

香港, 中华人民共和国

纬度: 22-19N, 经度: 113-55E, 海拔: 9米

当前天气观测

该预报发布于29分钟前的17:30 UTC
风速10节,风向东南,在之间变化
温度 29°C
湿度 79%
气压 1007 hPa
能见度10公里或以上
少量云层高于1000英尺
散云层高于2500英尺

METAR: VHHH 231730Z 13010KT 100V170 9999 FEW010 SCT025 29/25 Q1007 NOSIG

时间: 01:59 (17:59 UTC)

预报

该预报发布于59分钟前的17:00 UTC
预报有效从23日的 18点(UTC)到 24日的 24点(UTC)
风速10节,风向东南
能见度10公里或以上
少量云层高于1000英尺
散云层高于2500英尺
短暂存在
从 23日的 18点(UTC)到 23日的 22点(UTC)
能見度: 4000
阵雨
短暂存在
从 23日的 22点(UTC)到 24日的 04点(UTC)
能見度: 3000
少量云层高于1000英尺, 积雨云.
散云层高于2000英尺
阵雨
短暂存在
从 24日的 04点(UTC)到 24日的 08点(UTC)
风速10节,风向西南

TAF: VHHH 231700Z 2318/2424 14010KT 9999 FEW010 SCT025 TX32/2407Z TN27/2322Z TN27/2422Z TEMPO 2318/2322 4000 SHRA TEMPO 2322/2404 3000 SHRA FEW010CB SCT020 TEMPO 2404/2408 22010KT

超过4000个机场的气象观测和天气预报(METAR&TAF报告)。

可查询的气象台以黄色和红色小点在地图上表示。

将鼠标移到小点上方,可查看气象台名称。

然后点击查看天气观测和预报。

如需切换地图:点击带黑十字的绿色按钮放大地图;点击带横线的绿色按钮缩小地图;或者点击绿色箭头查看邻近地区的地图。


METAR-TAF: